Terminal Aerodrome Forecast
Issued by NWS

Home | Current Version | Previous Version | Text Only | Print | Product List | Glossary On
Versions: 1 2 3 4 5 6 7 8 9 10 11 12 13 14 15 16 17 18
000
FTUS44 KBMX 221731 CCA
TAFANB
TAF COR
KANB 221731Z 2218/2318 05007KT P6SM SCT015 BKN025
     FM222000 08006KT P6SM SCT025 BKN035
     FM230300 08003KT 4SM BR BKN010
     FM230600 08003KT 4SM BR BKN007
     FM231700 07004KT P6SM BKN015=

USA.gov is the U.S. government's official web portal to all federal, state and local government web resources and services.